Lime Ridge, WI (53942)

7:24 AM CDT on August 30, 2014 (GMT -0500)
KWIREEDS6 | Change Station
CLOSE
Current Station
Personal Weather Station
Location: Reedsburg, WI
Elevation: 915 ft
Nearby Weather Stations

Elev 915 ft 43.52 °N, 90.02 °W | Updated 2 minutes ago

Overcast
Overcast
68.5 °F
Feels Like 68.5 °F
N
5.0
Wind Variable Wind from SSW

Today
High -- | Low -- °F
--% Chance of Precip.
Yesterday
High -- | Low -- °F
Precip. -- in
6:22 AM 7:39 PM
Waxing Crescent, 21% visible
Pressure 29.77 in
Visibility 4.0 miles
Clouds Scattered Clouds 1000 ft
Mostly Cloudy 1300 ft
Overcast 2600 ft
Dew Point 68 °F
Humidity 97%
Rainfall 1.14 in
Snow Depth Not available.
UV 0 out of 12
Pollen 2.90 out of 12
Air Quality Not available.
Flu Activity Not available.
METAR KC35 301215Z AUTO 26005KT 4SM RA SCT010 BKN013 OVC026 20/20 A2977 RMK AO2 T02000195

More Conditions Fewer Conditions

Pressure 29.77 in
Visibility 4.0 miles
Clouds Scattered Clouds 1000 ft
Mostly Cloudy 1300 ft
Overcast 2600 ft
Dew Point 68 °F
Humidity 97%
Rainfall 1.14 in
Snow Depth Not available.
UV 0 out of 12
Pollen 2.90 out of 12
Air Quality Not available.
Flu Activity Not available.
METAR KC35 301215Z AUTO 26005KT 4SM RA SCT010 BKN013 OVC026 20/20 A2977 RMK AO2 T02000195

More Conditions Fewer Conditions

10-Day Weather Forecast

Almanac

Astronomy

Aug. 30, 2014 Rise Set
Actual Time 6:22 AM CDT 7:39 PM CDT
Civil Twilight 5:52 AM CDT 8:08 PM CDT
Nautical Twilight 5:17 AM CDT 8:44 PM CDT
Astronomical Twilight 4:39 AM CDT 9:21 PM CDT
Moon 11:19 AM CDT 10:03 PM CDT
Length of Visible Light 14h 16m
Length of Day
13h 17m
Tomorrow will be 2m 50s shorter.
Waxing Crescent, 21% of the Moon is Illuminated
Today
Waxing Crescent
Sep 2
First Quarter
Sep 8
Full
Sep 15
Last Quarter
Sep 24
New

Today's Extremes

State Highs State Lows

Community

WunderPhotos

Upload Photos

1,748,500 photos uploaded!

WunderBlogs® & News

By Dr. Jeff Masters
Director of Meteorology, Weather Underground
By Kari Strenfel
Meteorologist, Weather Underground
By Christopher C. Burt
Weather Historian, Weather Underground
August 30, 2014
August 30, 2014
August 30, 2014

Nearby

Snow Depth

Station Depth Elevation
No new snow has been reported.

Earthquake Activity

City Distance Mag. Time & Date
No recent earthquake activity has been reported nearby.
Minimum magnitude displayed is 2.5.

Coastal Water Temperatures

Place Temperature
No Stations Reporting

Nearby Weather Stations